Time;durP1;ratioP1;P1;durP2;ratioP2;P2;SDS_P1;SDS_P2;PMS_P1;PMS_P2;Temp;Humidity;BMP_temperature;BMP_pressure;BME280_temperature;BME280_humidity;BME280_pressure;Samples;Min_cycle;Max_cycle;Signal;HPM_P1;HPM_P2
2020/12/13 00:00:45;;;;;;;23.10;12.27;;;7.60;94.30;;;;;;2046468;28;20035;-81
2020/12/13 00:01:46;;;;;;;23.00;11.13;;;7.60;94.30;;;;;;2045403;28;20027;-81
2020/12/13 00:02:47;;;;;;;21.77;11.23;;;7.60;94.30;;;;;;2054266;28;20371;-82
2020/12/13 00:03:48;;;;;;;21.40;10.65;;;7.60;94.30;;;;;;2045982;29;20035;-82
2020/12/13 00:04:49;;;;;;;23.63;11.35;;;7.60;94.30;;;;;;2040908;29;20118;-82
2020/12/13 00:05:50;;;;;;;22.95;11.77;;;7.60;94.30;;;;;;2040515;28;20407;-82
2020/12/13 00:06:51;;;;;;;22.33;11.60;;;7.60;94.30;;;;;;2051868;28;20029;-82
2020/12/13 00:07:53;;;;;;;22.05;11.60;;;7.60;94.30;;;;;;2056716;28;20031;-81
2020/12/13 00:08:54;;;;;;;23.88;12.00;;;7.60;94.20;;;;;;2043259;29;20027;-82
2020/12/13 00:09:55;;;;;;;24.13;11.27;;;7.60;94.50;;;;;;2037344;29;20035;-82
2020/12/13 00:10:56;;;;;;;23.20;11.45;;;7.60;94.30;;;;;;2046242;28;20030;-82
2020/12/13 00:11:57;;;;;;;24.63;12.00;;;7.60;94.20;;;;;;2050998;28;20110;-82
2020/12/13 00:12:58;;;;;;;24.27;11.40;;;7.50;94.20;;;;;;2046301;28;20032;-82
2020/12/13 00:13:59;;;;;;;25.70;11.88;;;7.50;94.20;;;;;;2037215;29;20024;-82
2020/12/13 00:15:00;;;;;;;24.95;12.65;;;7.50;94.20;;;;;;2041728;29;20126;-82
2020/12/13 00:16:00;;;;;;;26.52;12.15;;;7.50;94.20;;;;;;2049912;28;20031;-82
2020/12/13 00:17:02;;;;;;;25.65;12.25;;;7.50;94.30;;;;;;2048749;28;20031;-82
2020/12/13 00:18:02;;;;;;;27.30;12.45;;;7.50;94.30;;;;;;2050873;28;20563;-82
2020/12/13 00:19:04;;;;;;;24.92;12.00;;;7.50;94.30;;;;;;2046073;29;20031;-82
2020/12/13 00:20:06;;;;;;;25.15;12.15;;;7.50;94.30;;;;;;2053597;28;20025;-81
2020/12/13 00:21:09;;;;;;;24.67;12.10;;;7.50;94.30;;;;;;2054246;28;20046;-81
2020/12/13 00:22:09;;;;;;;26.65;12.50;;;7.50;94.30;;;;;;2055430;28;20093;-81
2020/12/13 00:23:10;;;;;;;24.23;12.40;;;7.50;94.30;;;;;;2050421;28;20505;-81
2020/12/13 00:24:11;;;;;;;26.15;12.27;;;7.50;94.30;;;;;;2047963;28;20047;-81
2020/12/13 00:25:12;;;;;;;24.63;11.85;;;7.50;94.30;;;;;;2048624;28;20426;-82
2020/12/13 00:26:12;;;;;;;26.85;12.60;;;7.50;94.30;;;;;;2050642;28;20184;-81
2020/12/13 00:27:14;;;;;;;28.23;13.20;;;7.50;94.30;;;;;;2054293;28;20027;-81
2020/12/13 00:28:14;;;;;;;24.17;12.85;;;7.50;94.30;;;;;;2046424;28;20110;-81
2020/12/13 00:29:16;;;;;;;26.92;12.90;;;7.50;94.30;;;;;;2023653;29;20024;-81
2020/12/13 00:30:17;;;;;;;25.92;12.38;;;7.50;94.30;;;;;;2032034;28;20509;-81
2020/12/13 00:31:18;;;;;;;27.63;12.50;;;7.50;94.30;;;;;;2054715;28;20037;-81
2020/12/13 00:32:19;;;;;;;26.13;12.73;;;7.50;94.30;;;;;;2049741;28;20409;-81
2020/12/13 00:33:20;;;;;;;27.17;12.85;;;7.50;94.30;;;;;;2034798;29;20032;-81
2020/12/13 00:34:20;;;;;;;24.35;11.98;;;7.50;94.30;;;;;;2039005;29;22440;-81
2020/12/13 00:35:21;;;;;;;25.60;12.40;;;7.50;94.30;;;;;;2054646;28;20030;-82
2020/12/13 00:36:22;;;;;;;27.30;12.40;;;7.50;94.30;;;;;;2055301;28;20536;-81
2020/12/13 00:37:23;;;;;;;24.67;12.40;;;7.50;94.30;;;;;;2048378;28;20032;-82
2020/12/13 00:38:24;;;;;;;26.58;12.77;;;7.50;94.30;;;;;;2047243;28;20434;-81
2020/12/13 00:39:25;;;;;;;24.83;12.85;;;7.50;94.30;;;;;;2054942;28;20035;-82
2020/12/13 00:40:25;;;;;;;25.15;12.25;;;7.50;94.30;;;;;;2048813;28;20114;-81
2020/12/13 00:41:26;;;;;;;24.90;12.60;;;7.50;94.30;;;;;;2050875;28;20122;-82
2020/12/13 00:42:26;;;;;;;27.02;13.13;;;7.50;94.30;;;;;;2052133;28;20054;-81
2020/12/13 00:43:27;;;;;;;25.65;13.18;;;7.50;94.30;;;;;;2049303;28;20055;-81
2020/12/13 00:44:28;;;;;;;24.17;12.35;;;7.50;94.30;;;;;;2054435;28;20039;-82
2020/12/13 00:45:28;;;;;;;26.90;13.65;;;7.50;94.30;;;;;;2047517;28;20087;-81
2020/12/13 00:46:29;;;;;;;26.23;13.10;;;7.50;94.30;;;;;;2047065;29;20050;-81
2020/12/13 00:47:29;;;;;;;29.08;13.35;;;7.50;94.30;;;;;;2039180;29;20126;-81
2020/12/13 00:48:30;;;;;;;30.42;13.75;;;7.50;94.30;;;;;;2023095;29;20058;-82
2020/12/13 00:49:31;;;;;;;28.35;13.02;;;7.50;94.30;;;;;;2039972;29;20023;-81
2020/12/13 00:50:33;;;;;;;26.50;13.23;;;7.50;94.30;;;;;;2055071;28;20065;-81
2020/12/13 00:51:34;;;;;;;27.88;13.45;;;7.50;94.30;;;;;;2053951;28;20110;-81
2020/12/13 00:52:40;;;;;;;28.83;13.35;;;7.50;94.30;;;;;;2055864;28;20093;-81
2020/12/13 00:53:40;;;;;;;25.80;13.40;;;7.50;94.30;;;;;;2048917;28;20032;-82
2020/12/13 00:54:41;;;;;;;28.10;13.25;;;7.50;94.20;;;;;;2047250;28;20031;-81
2020/12/13 00:55:41;;;;;;;28.17;13.68;;;7.50;94.30;;;;;;2055119;28;20705;-81
2020/12/13 00:56:45;;;;;;;27.52;13.70;;;7.50;94.30;;;;;;2047484;29;20043;-81
2020/12/13 00:57:46;;;;;;;28.30;13.23;;;7.50;94.30;;;;;;2047828;28;20042;-81
2020/12/13 00:58:46;;;;;;;29.33;13.65;;;7.50;94.20;;;;;;2053270;28;20037;-81
2020/12/13 00:59:47;;;;;;;26.42;14.13;;;7.50;94.20;;;;;;2056342;28;20030;-81
2020/12/13 01:00:47;;;;;;;29.40;14.45;;;7.50;94.20;;;;;;2053246;28;20034;-81
2020/12/13 01:01:48;;;;;;;29.88;14.55;;;7.50;94.20;;;;;;2046074;29;20047;-81
2020/12/13 01:02:49;;;;;;;27.20;13.48;;;7.50;94.20;;;;;;2047107;28;20489;-81
2020/12/13 01:03:50;;;;;;;27.70;14.73;;;7.50;94.20;;;;;;2046978;28;20046;-81
2020/12/13 01:04:52;;;;;;;30.30;14.18;;;7.50;94.50;;;;;;2048320;28;20062;-81
2020/12/13 01:05:56;;;;;;;29.35;14.45;;;7.50;94.20;;;;;;2039926;29;20078;-81
2020/12/13 01:07:04;;;;;;;27.08;13.70;;;7.40;94.20;;;;;;2040870;28;20035;-81
2020/12/13 01:08:05;;;;;;;28.50;13.73;;;7.40;94.30;;;;;;2056295;28;20113;-81
2020/12/13 01:09:06;;;;;;;28.15;14.18;;;7.40;94.20;;;;;;2054867;28;20441;-80
2020/12/13 01:10:06;;;;;;;29.58;13.88;;;7.40;94.20;;;;;;2046434;28;20039;-81
2020/12/13 01:11:07;;;;;;;27.25;13.77;;;7.40;94.30;;;;;;2055496;28;20054;-81
2020/12/13 01:12:08;;;;;;;27.45;13.70;;;7.40;94.30;;;;;;2045630;28;20094;-81
2020/12/13 01:13:11;;;;;;;27.00;13.55;;;7.40;94.30;;;;;;2037078;29;20493;-81
2020/12/13 01:14:12;;;;;;;30.15;14.52;;;7.40;94.30;;;;;;2041110;29;20043;-81
2020/12/13 01:15:14;;;;;;;28.13;13.82;;;7.50;94.30;;;;;;2053402;28;20023;-81
2020/12/13 01:16:16;;;;;;;27.80;13.98;;;7.40;94.30;;;;;;2051586;28;20035;-81
2020/12/13 01:17:17;;;;;;;29.48;14.18;;;7.40;94.20;;;;;;2043886;28;20375;-81
2020/12/13 01:18:18;;;;;;;28.40;14.07;;;7.40;94.30;;;;;;2036291;29;20059;-81
2020/12/13 01:19:18;;;;;;;30.10;14.43;;;7.40;94.30;;;;;;2042804;28;20078;-81
2020/12/13 01:20:20;;;;;;;28.40;14.10;;;7.40;94.30;;;;;;2049893;28;20027;-81
2020/12/13 01:21:23;;;;;;;29.58;14.55;;;7.40;94.30;;;;;;2051205;28;20441;-81
2020/12/13 01:22:23;;;;;;;28.98;14.07;;;7.40;94.30;;;;;;2058737;28;20023;-81
2020/12/13 01:23:24;;;;;;;27.75;13.73;;;7.40;94.30;;;;;;2044165;28;20042;-81
2020/12/13 01:24:25;;;;;;;28.20;14.52;;;7.40;94.30;;;;;;2047762;28;20030;-81
2020/12/13 01:25:25;;;;;;;27.67;14.57;;;7.40;94.30;;;;;;2051046;28;20067;-82
2020/12/13 01:26:27;;;;;;;27.60;14.43;;;7.40;94.30;;;;;;2041691;29;20043;-82
2020/12/13 01:27:27;;;;;;;29.98;15.07;;;7.40;94.30;;;;;;2051972;28;20039;-81
2020/12/13 01:28:28;;;;;;;28.27;14.63;;;7.40;94.20;;;;;;2044635;29;20642;-82
2020/12/13 01:29:29;;;;;;;29.25;14.43;;;7.50;94.30;;;;;;2039160;29;20035;-81
2020/12/13 01:30:30;;;;;;;26.13;13.45;;;7.40;94.20;;;;;;2053924;28;20070;-81
2020/12/13 01:31:31;;;;;;;26.05;13.88;;;7.40;94.20;;;;;;2050750;28;20027;-81
2020/12/13 01:32:50;;;;;;;26.83;13.63;;;7.40;94.20;;;;;;2045382;28;20038;-81
2020/12/13 01:33:51;;;;;;;26.75;12.93;;;7.50;94.20;;;;;;2040702;29;20024;-82
2020/12/13 01:34:52;;;;;;;26.27;13.52;;;7.50;94.20;;;;;;2048113;28;20027;-81
2020/12/13 01:35:53;;;;;;;26.88;13.05;;;7.40;94.20;;;;;;2046738;28;20090;-81
2020/12/13 01:36:53;;;;;;;28.00;14.15;;;7.40;94.20;;;;;;2039550;29;20032;-81
2020/12/13 01:37:54;;;;;;;27.98;13.82;;;7.40;94.10;;;;;;2047195;28;20521;-81
2020/12/13 01:38:55;;;;;;;26.55;13.18;;;7.40;94.10;;;;;;2055653;28;20081;-81
2020/12/13 01:39:55;;;;;;;25.98;13.50;;;7.40;94.10;;;;;;2052840;28;20022;-82
2020/12/13 01:40:57;;;;;;;25.27;13.05;;;7.40;94.20;;;;;;2054805;28;20424;-81
2020/12/13 01:41:59;;;;;;;22.85;12.32;;;7.40;94.20;;;;;;2048623;28;20031;-82
2020/12/13 01:42:59;;;;;;;26.30;12.40;;;7.40;94.20;;;;;;2047855;28;20446;-81
2020/12/13 01:44:04;;;;;;;26.33;12.20;;;7.40;94.20;;;;;;2043327;28;20109;-82
2020/12/13 01:45:07;;;;;;;25.85;12.25;;;7.40;94.20;;;;;;2055917;28;20022;-82
2020/12/13 01:46:07;;;;;;;24.67;12.30;;;7.40;94.30;;;;;;2052607;28;20047;-81
2020/12/13 01:47:08;;;;;;;24.33;12.15;;;7.40;94.20;;;;;;2062459;28;20007;-81
2020/12/13 01:48:09;;;;;;;24.13;12.52;;;7.40;94.20;;;;;;2061664;28;20038;-80
2020/12/13 01:49:10;;;;;;;26.40;12.40;;;7.40;94.20;;;;;;2059279;28;20027;-80
2020/12/13 01:50:23;;;;;;;23.95;11.98;;;7.40;94.20;;;;;;2059268;28;20030;-81
2020/12/13 01:51:39;;;;;;;21.33;11.13;;;7.40;94.20;;;;;;2055185;28;20033;-81
2020/12/13 01:52:47;;;;;;;23.27;11.50;;;7.40;94.20;;;;;;2054124;28;20019;-81
2020/12/13 01:53:52;;;;;;;21.02;10.40;;;7.40;94.20;;;;;;2055913;28;20038;-81
2020/12/13 01:55:03;;;;;;;22.90;11.10;;;7.40;94.20;;;;;;2053747;28;20046;-81
2020/12/13 01:56:04;;;;;;;22.63;10.50;;;7.40;94.20;;;;;;2056227;28;20106;-81
2020/12/13 01:57:06;;;;;;;23.10;11.02;;;7.40;94.20;;;;;;2053133;29;20032;-81
2020/12/13 01:58:12;;;;;;;23.42;10.77;;;7.40;94.20;;;;;;2066381;28;20037;-81
2020/12/13 01:59:17;;;;;;;21.60;10.82;;;7.40;94.20;;;;;;2062099;28;20007;-81
2020/12/13 02:00:18;;;;;;;21.83;10.57;;;7.40;94.20;;;;;;2065944;28;20222;-81
2020/12/13 02:01:20;;;;;;;21.95;10.90;;;7.40;94.20;;;;;;2058678;28;20004;-81
2020/12/13 02:02:23;;;;;;;21.50;10.73;;;7.40;94.20;;;;;;2051992;28;20088;-82
2020/12/13 02:03:36;;;;;;;21.55;10.75;;;7.40;94.20;;;;;;2061505;28;20532;-81
2020/12/13 02:04:38;;;;;;;22.05;10.60;;;7.40;94.20;;;;;;2055311;28;20023;-81
2020/12/13 02:05:40;;;;;;;22.23;10.38;;;7.40;94.40;;;;;;2049513;28;20046;-82
2020/12/13 02:06:44;;;;;;;20.85;9.88;;;7.40;94.20;;;;;;2040115;29;20039;-81
2020/12/13 02:07:47;;;;;;;22.75;10.70;;;7.40;94.40;;;;;;2057207;28;20023;-81
2020/12/13 02:08:49;;;;;;;23.90;12.00;;;7.40;94.10;;;;;;2049775;28;20098;-82
2020/12/13 02:09:50;;;;;;;21.05;9.95;;;7.40;94.10;;;;;;2038892;28;20038;-82
2020/12/13 02:10:51;;;;;;;22.73;10.57;;;7.40;94.10;;;;;;2055724;28;20042;-82
2020/12/13 02:11:52;;;;;;;22.73;10.98;;;7.40;94.10;;;;;;2048151;28;20046;-82
2020/12/13 02:12:52;;;;;;;23.63;11.05;;;7.40;94.10;;;;;;2049066;28;20024;-81
2020/12/13 02:13:53;;;;;;;22.92;11.10;;;7.40;94.20;;;;;;2052119;28;20023;-82
2020/12/13 02:14:53;;;;;;;23.83;11.02;;;7.40;94.20;;;;;;2054742;28;20038;-81
2020/12/13 02:15:54;;;;;;;23.75;10.98;;;7.40;94.20;;;;;;2053929;28;20182;-81
2020/12/13 02:16:55;;;;;;;23.85;11.07;;;7.40;94.20;;;;;;2046076;29;20047;-81
2020/12/13 02:17:56;;;;;;;25.77;11.30;;;7.40;94.20;;;;;;2039173;29;20485;-81
2020/12/13 02:18:56;;;;;;;24.67;10.73;;;7.30;94.10;;;;;;2048266;28;20066;-81
2020/12/13 02:19:57;;;;;;;27.38;11.55;;;7.30;94.10;;;;;;2062062;28;20019;-81
2020/12/13 02:20:58;;;;;;;20.80;10.63;;;7.30;94.10;;;;;;2051213;28;20070;-81
2020/12/13 02:22:00;;;;;;;22.38;10.48;;;7.40;94.10;;;;;;2051407;29;20028;-82
2020/12/13 02:23:06;;;;;;;21.88;10.85;;;7.30;94.10;;;;;;2066213;28;20042;-82
2020/12/13 02:24:07;;;;;;;23.17;11.00;;;7.30;94.10;;;;;;2058310;28;20070;-81
2020/12/13 02:25:12;;;;;;;20.02;10.00;;;7.30;94.10;;;;;;2048323;28;20135;-81
2020/12/13 02:26:15;;;;;;;21.92;11.25;;;7.30;94.10;;;;;;2048884;28;20054;-81
2020/12/13 02:27:15;;;;;;;23.50;10.52;;;7.40;94.20;;;;;;2051054;28;20047;-81
2020/12/13 02:28:16;;;;;;;21.67;10.15;;;7.40;94.20;;;;;;2041879;28;20160;-81
2020/12/13 02:29:17;;;;;;;22.38;10.73;;;7.30;94.10;;;;;;2056949;28;20500;-81
2020/12/13 02:30:17;;;;;;;23.15;10.48;;;7.30;94.10;;;;;;2051872;28;20134;-80
2020/12/13 02:31:19;;;;;;;21.90;10.85;;;7.40;94.20;;;;;;2046807;29;20074;-81
2020/12/13 02:32:19;;;;;;;19.90;9.80;;;7.40;94.20;;;;;;2041186;28;20038;-80
2020/12/13 02:33:20;;;;;;;21.52;10.25;;;7.30;94.10;;;;;;2046502;28;20122;-81
2020/12/13 02:34:20;;;;;;;22.00;10.68;;;7.40;94.10;;;;;;2046699;29;20059;-80
2020/12/13 02:35:22;;;;;;;21.98;10.13;;;7.40;94.40;;;;;;2049375;29;20032;-81
2020/12/13 02:36:23;;;;;;;21.40;10.25;;;7.40;94.10;;;;;;2050983;28;20030;-81
2020/12/13 02:37:24;;;;;;;23.83;10.80;;;7.40;94.10;;;;;;2042772;28;20036;-82
2020/12/13 02:38:27;;;;;;;19.67;9.63;;;7.40;94.10;;;;;;2040690;28;20105;-81
2020/12/13 02:39:28;;;;;;;20.50;9.55;;;7.40;94.10;;;;;;2049118;28;20553;-81
2020/12/13 02:40:28;;;;;;;22.75;11.00;;;7.40;94.10;;;;;;2046585;29;20039;-81
2020/12/13 02:41:29;;;;;;;19.85;10.15;;;7.40;94.10;;;;;;2047178;29;20401;-81
2020/12/13 02:42:34;;;;;;;20.98;9.88;;;7.40;94.10;;;;;;2044530;29;20090;-81
2020/12/13 02:43:34;;;;;;;20.13;9.90;;;7.40;94.20;;;;;;2042155;29;20287;-81
2020/12/13 02:44:35;;;;;;;22.17;10.32;;;7.40;94.20;;;;;;2043876;28;20054;-81
2020/12/13 02:45:36;;;;;;;20.63;10.32;;;7.40;94.10;;;;;;2048636;28;20057;-81
2020/12/13 02:46:36;;;;;;;22.98;10.18;;;7.40;94.10;;;;;;2033084;29;20134;-81
2020/12/13 02:47:37;;;;;;;23.33;10.82;;;7.40;94.10;;;;;;2040591;29;20031;-81
2020/12/13 02:48:37;;;;;;;19.40;10.02;;;7.40;94.10;;;;;;2049000;28;20592;-81
2020/12/13 02:49:41;;;;;;;22.67;11.07;;;7.40;94.10;;;;;;2045555;28;20060;-81
2020/12/13 02:50:42;;;;;;;22.77;10.02;;;7.40;94.10;;;;;;2055722;28;20043;-81
2020/12/13 02:51:43;;;;;;;19.52;9.50;;;7.40;94.10;;;;;;2053587;28;20027;-81
2020/12/13 02:52:44;;;;;;;22.00;10.35;;;7.40;94.10;;;;;;2053148;28;20060;-81
2020/12/13 02:53:44;;;;;;;22.08;10.45;;;7.40;94.10;;;;;;2047653;28;20031;-81
2020/12/13 02:54:46;;;;;;;22.13;10.10;;;7.40;94.10;;;;;;2042238;28;20063;-81
2020/12/13 02:55:47;;;;;;;19.98;9.88;;;7.40;94.10;;;;;;2053726;28;20023;-81
2020/12/13 02:56:47;;;;;;;23.63;10.52;;;7.40;94.40;;;;;;2057129;28;20037;-81
2020/12/13 02:57:48;;;;;;;21.08;10.25;;;7.40;94.10;;;;;;2048858;28;20031;-81
2020/12/13 02:58:49;;;;;;;22.27;10.35;;;7.40;94.10;;;;;;2049458;28;20023;-81
2020/12/13 02:59:49;;;;;;;21.73;10.73;;;7.40;94.10;;;;;;2054479;28;20064;-81
2020/12/13 03:00:50;;;;;;;21.15;10.15;;;7.40;94.10;;;;;;2048532;28;20039;-81
2020/12/13 03:01:50;;;;;;;21.08;9.77;;;7.40;94.10;;;;;;2047609;28;20086;-81
2020/12/13 03:02:51;;;;;;;23.98;10.63;;;7.40;94.10;;;;;;2055277;28;20050;-81
2020/12/13 03:03:52;;;;;;;24.95;10.90;;;7.40;94.10;;;;;;2056280;28;20037;-81
2020/12/13 03:04:52;;;;;;;23.10;10.98;;;7.50;94.10;;;;;;2055881;28;20125;-81
2020/12/13 03:05:53;;;;;;;23.80;10.45;;;7.40;94.30;;;;;;2051598;28;20083;-81
2020/12/13 03:06:54;;;;;;;21.58;10.55;;;7.40;94.10;;;;;;2051825;28;20490;-81
2020/12/13 03:07:54;;;;;;;22.80;10.63;;;7.50;94.10;;;;;;2053564;28;20114;-81
2020/12/13 03:08:55;;;;;;;24.23;10.07;;;7.40;94.10;;;;;;2056773;28;20078;-81
2020/12/13 03:09:56;;;;;;;24.17;11.43;;;7.50;94.10;;;;;;2040764;29;20043;-81
2020/12/13 03:10:57;;;;;;;22.48;10.57;;;7.40;94.10;;;;;;2043999;29;20035;-81
2020/12/13 03:11:57;;;;;;;21.35;10.98;;;7.40;94.10;;;;;;2050337;28;20069;-81
2020/12/13 03:12:58;;;;;;;23.08;10.60;;;7.50;94.10;;;;;;2053858;28;20030;-81
2020/12/13 03:13:58;;;;;;;23.23;10.65;;;7.50;94.10;;;;;;2054160;28;20031;-81
2020/12/13 03:14:59;;;;;;;23.27;10.77;;;7.50;94.10;;;;;;2051221;28;20043;-81
2020/12/13 03:16:00;;;;;;;23.23;10.63;;;7.50;94.10;;;;;;2045172;29;20042;-81
2020/12/13 03:17:00;;;;;;;21.65;10.85;;;7.50;94.10;;;;;;2047256;28;20023;-81
2020/12/13 03:18:01;;;;;;;25.10;10.45;;;7.50;94.10;;;;;;2049439;28;20114;-82
2020/12/13 03:19:02;;;;;;;20.60;10.43;;;7.50;94.10;;;;;;2053601;28;20109;-81
2020/12/13 03:20:03;;;;;;;26.30;11.05;;;7.50;94.10;;;;;;2055721;28;20067;-81
2020/12/13 03:21:04;;;;;;;23.17;11.43;;;7.50;94.10;;;;;;2056949;28;20030;-81
2020/12/13 03:22:04;;;;;;;26.27;11.07;;;7.50;94.10;;;;;;2050529;28;20413;-81
2020/12/13 03:23:05;;;;;;;24.88;10.80;;;7.50;94.10;;;;;;2049052;28;20035;-80
2020/12/13 03:24:06;;;;;;;23.55;10.50;;;7.50;94.10;;;;;;2054423;28;20041;-81
2020/12/13 03:25:07;;;;;;;23.85;10.90;;;7.50;94.10;;;;;;2055435;28;20042;-81
2020/12/13 03:26:07;;;;;;;24.45;10.82;;;7.50;94.10;;;;;;2049316;28;20098;-81
2020/12/13 03:27:08;;;;;;;23.88;10.60;;;7.50;94.10;;;;;;2049290;28;20122;-81
2020/12/13 03:28:09;;;;;;;21.85;10.43;;;7.50;94.10;;;;;;2049141;28;20035;-81
2020/12/13 03:29:09;;;;;;;25.05;10.88;;;7.50;94.10;;;;;;2053637;28;20063;-81
2020/12/13 03:30:10;;;;;;;24.40;10.35;;;7.50;94.10;;;;;;2038850;29;20031;-81
2020/12/13 03:31:11;;;;;;;23.85;10.80;;;7.50;94.10;;;;;;2039554;29;20075;-81
2020/12/13 03:32:12;;;;;;;24.50;10.07;;;7.50;94.10;;;;;;2047817;29;20074;-82
2020/12/13 03:33:13;;;;;;;22.40;10.73;;;7.50;94.00;;;;;;2047858;28;20028;-81
2020/12/13 03:34:13;;;;;;;28.08;11.15;;;7.50;94.00;;;;;;2050988;28;20418;-81
2020/12/13 03:35:14;;;;;;;26.15;11.43;;;7.50;94.00;;;;;;2052100;28;20030;-81
2020/12/13 03:36:14;;;;;;;25.90;10.27;;;7.50;94.00;;;;;;2054493;28;20059;-82
2020/12/13 03:37:17;;;;;;;24.13;10.75;;;7.50;94.10;;;;;;2054376;28;20053;-82
2020/12/13 03:38:18;;;;;;;23.92;10.40;;;7.50;94.00;;;;;;2050337;28;20034;-82
2020/12/13 03:39:18;;;;;;;22.73;10.27;;;7.50;94.00;;;;;;2050468;28;20050;-81
2020/12/13 03:40:19;;;;;;;29.92;10.68;;;7.50;94.00;;;;;;2048495;28;20390;-82
2020/12/13 03:41:19;;;;;;;22.77;10.68;;;7.50;94.00;;;;;;2042390;29;20035;-82
2020/12/13 03:42:20;;;;;;;27.95;10.85;;;7.50;94.00;;;;;;2047709;28;20027;-81
2020/12/13 03:43:21;;;;;;;28.20;10.02;;;7.50;94.10;;;;;;2048496;28;20047;-82
2020/12/13 03:44:21;;;;;;;25.60;11.00;;;7.50;94.00;;;;;;2055910;28;20464;-82
2020/12/13 03:45:22;;;;;;;25.90;10.23;;;7.50;94.00;;;;;;2048459;28;20076;-81
2020/12/13 03:46:22;;;;;;;28.20;11.35;;;7.50;94.00;;;;;;2047637;28;20035;-81
2020/12/13 03:47:23;;;;;;;25.25;10.35;;;7.50;94.00;;;;;;2055378;28;20031;-81
2020/12/13 03:48:23;;;;;;;29.50;10.15;;;7.50;94.00;;;;;;2050764;28;20042;-81
2020/12/13 03:49:24;;;;;;;24.92;10.68;;;7.50;94.00;;;;;;2054932;28;20022;-81
2020/12/13 03:50:25;;;;;;;22.85;10.73;;;7.50;94.00;;;;;;2049388;28;20063;-81
2020/12/13 03:51:25;;;;;;;27.45;11.50;;;7.50;94.00;;;;;;2046683;28;20027;-81
2020/12/13 03:52:26;;;;;;;26.33;11.18;;;7.50;94.00;;;;;;2039525;29;20425;-81
2020/12/13 03:53:29;;;;;;;25.77;10.40;;;7.50;94.00;;;;;;2040004;29;20491;-81
2020/12/13 03:54:30;;;;;;;27.55;10.65;;;7.50;94.00;;;;;;2043242;29;20412;-81
2020/12/13 03:55:31;;;;;;;26.77;10.57;;;7.50;94.30;;;;;;2040321;28;20187;-81
2020/12/13 03:56:32;;;;;;;25.88;10.60;;;7.50;94.10;;;;;;2052683;28;20028;-81
2020/12/13 03:57:32;;;;;;;25.67;10.57;;;7.50;94.30;;;;;;2049867;28;20365;-81
2020/12/13 03:58:33;;;;;;;26.88;10.07;;;7.50;94.00;;;;;;2049631;28;20039;-81
2020/12/13 03:59:33;;;;;;;29.70;10.40;;;7.50;94.10;;;;;;2047845;28;20023;-82
2020/12/13 04:00:35;;;;;;;29.50;10.48;;;7.50;94.10;;;;;;2051042;28;20129;-81
2020/12/13 04:01:35;;;;;;;24.42;10.52;;;7.50;94.00;;;;;;2055253;28;20504;-81
2020/12/13 04:02:36;;;;;;;26.52;10.48;;;7.50;94.00;;;;;;2047957;29;20039;-81
2020/12/13 04:03:37;;;;;;;34.00;10.80;;;7.50;94.00;;;;;;2047945;28;20031;-81
2020/12/13 04:04:37;;;;;;;28.45;10.43;;;7.50;94.00;;;;;;2048795;28;20042;-82
2020/12/13 04:05:38;;;;;;;24.52;9.18;;;7.50;94.00;;;;;;2040210;29;20536;-82
2020/12/13 04:06:38;;;;;;;24.42;9.90;;;7.50;94.00;;;;;;2048210;28;20451;-81
2020/12/13 04:07:39;;;;;;;22.60;9.93;;;7.50;94.00;;;;;;2048471;28;20043;-81
2020/12/13 04:08:40;;;;;;;23.65;10.10;;;7.50;94.00;;;;;;2056122;28;20378;-82
2020/12/13 04:09:40;;;;;;;22.38;9.40;;;7.50;94.10;;;;;;2048251;28;20652;-81
2020/12/13 04:10:41;;;;;;;19.75;9.23;;;7.50;94.10;;;;;;2049692;28;20063;-82
2020/12/13 04:11:41;;;;;;;22.90;10.40;;;7.50;94.10;;;;;;2040402;29;20115;-81
2020/12/13 04:12:42;;;;;;;25.63;9.95;;;7.50;94.10;;;;;;2056292;28;20413;-81
2020/12/13 04:13:43;;;;;;;23.80;9.50;;;7.50;94.10;;;;;;2056598;28;20023;-80
2020/12/13 04:14:43;;;;;;;18.52;9.13;;;7.50;94.10;;;;;;2055684;28;20511;-80
2020/12/13 04:15:44;;;;;;;21.70;9.30;;;7.50;94.10;;;;;;2054964;28;20530;-80
2020/12/13 04:16:45;;;;;;;22.13;9.63;;;7.50;94.10;;;;;;2047667;28;20063;-80
2020/12/13 04:17:45;;;;;;;21.73;9.65;;;7.50;94.10;;;;;;2055713;28;20031;-80
2020/12/13 04:18:49;;;;;;;20.50;9.38;;;7.50;94.10;;;;;;2056323;28;20481;-80
2020/12/13 04:19:49;;;;;;;21.73;9.85;;;7.50;94.10;;;;;;2047729;28;20671;-80
2020/12/13 04:20:50;;;;;;;18.75;9.45;;;7.50;94.10;;;;;;2039141;29;20056;-80
2020/12/13 04:21:51;;;;;;;22.65;9.80;;;7.50;94.10;;;;;;2048615;28;20094;-80
2020/12/13 04:22:51;;;;;;;21.55;10.00;;;7.50;94.10;;;;;;2056294;28;20030;-80
2020/12/13 04:23:53;;;;;;;20.65;10.00;;;7.50;94.10;;;;;;2048366;28;20517;-80
2020/12/13 04:24:54;;;;;;;19.83;10.05;;;7.50;94.10;;;;;;2046048;28;21503;-80
2020/12/13 04:25:54;;;;;;;23.30;10.02;;;7.50;94.00;;;;;;2053921;28;20118;-80
2020/12/13 04:26:55;;;;;;;22.35;10.60;;;7.50;94.00;;;;;;2054873;28;20405;-81
2020/12/13 04:27:55;;;;;;;22.15;10.07;;;7.50;94.00;;;;;;2055371;28;20043;-80
2020/12/13 04:28:56;;;;;;;27.17;9.82;;;7.50;94.00;;;;;;2054105;28;20421;-80
2020/12/13 04:29:56;;;;;;;24.27;10.63;;;7.50;94.00;;;;;;2048171;28;20038;-80
2020/12/13 04:30:57;;;;;;;25.23;9.98;;;7.50;94.00;;;;;;2060706;28;20126;-80
2020/12/13 04:31:58;;;;;;;21.48;9.93;;;7.60;94.10;;;;;;2048856;28;20058;-80
2020/12/13 04:32:58;;;;;;;21.10;9.07;;;7.50;94.00;;;;;;2053947;28;20030;-80
2020/12/13 04:33:59;;;;;;;23.30;10.13;;;7.60;94.10;;;;;;2053801;28;20113;-80
2020/12/13 04:35:00;;;;;;;24.40;9.73;;;7.50;94.00;;;;;;2050162;28;20034;-79
2020/12/13 04:36:04;;;;;;;23.15;10.15;;;7.50;94.00;;;;;;2056964;28;20035;-80
2020/12/13 04:37:05;;;;;;;24.67;10.57;;;7.50;94.00;;;;;;2054500;28;20094;-80
2020/12/13 04:38:05;;;;;;;20.95;10.73;;;7.50;94.00;;;;;;2048394;28;20058;-80
2020/12/13 04:39:06;;;;;;;22.67;10.32;;;7.50;94.00;;;;;;2038083;29;20502;-80
2020/12/13 04:40:07;;;;;;;25.40;11.10;;;7.60;94.00;;;;;;2038384;29;20032;-80
2020/12/13 04:41:07;;;;;;;21.98;9.73;;;7.60;94.00;;;;;;2037674;29;20031;-80
2020/12/13 04:42:08;;;;;;;25.25;10.50;;;7.60;94.00;;;;;;2042343;29;20478;-80
2020/12/13 04:43:09;;;;;;;21.90;10.30;;;7.50;94.00;;;;;;2056704;28;20035;-80
2020/12/13 04:44:09;;;;;;;25.25;10.25;;;7.60;94.00;;;;;;2056289;28;20179;-80
2020/12/13 04:45:10;;;;;;;21.10;10.02;;;7.60;94.00;;;;;;2055688;28;20018;-80
2020/12/13 04:46:11;;;;;;;25.77;10.60;;;7.60;94.00;;;;;;2054409;28;20050;-80
2020/12/13 04:47:17;;;;;;;21.65;10.38;;;7.60;94.00;;;;;;2047995;28;20035;-80
2020/12/13 04:48:17;;;;;;;24.77;11.05;;;7.60;94.00;;;;;;2048012;28;20070;-80
2020/12/13 04:49:24;;;;;;;22.75;9.95;;;7.50;94.00;;;;;;2052002;28;20028;-80
2020/12/13 04:50:27;;;;;;;26.85;10.40;;;7.50;94.00;;;;;;2051714;28;20450;-80
2020/12/13 04:51:28;;;;;;;22.88;10.35;;;7.60;94.00;;;;;;2054636;28;20035;-80
2020/12/13 04:52:29;;;;;;;22.20;9.90;;;7.60;94.00;;;;;;2050392;28;20129;-80
2020/12/13 04:53:32;;;;;;;22.48;10.60;;;7.60;94.00;;;;;;2042347;28;20019;-80
2020/12/13 04:54:33;;;;;;;24.08;11.02;;;7.60;94.00;;;;;;2054775;28;20027;-80
2020/12/13 04:55:53;;;;;;;20.70;10.25;;;7.60;94.00;;;;;;2049616;28;20038;-80
2020/12/13 04:56:56;;;;;;;21.90;9.80;;;7.60;94.00;;;;;;2048354;28;20130;-80
2020/12/13 04:57:57;;;;;;;25.10;10.00;;;7.60;94.00;;;;;;2049274;28;20063;-80
2020/12/13 04:59:00;;;;;;;21.52;10.38;;;7.60;94.00;;;;;;2054179;28;20034;-80
2020/12/13 05:00:01;;;;;;;27.20;10.80;;;7.60;94.00;;;;;;2053989;28;20068;-80
2020/12/13 05:01:03;;;;;;;24.70;10.45;;;7.60;94.00;;;;;;2054244;28;20027;-80
2020/12/13 05:02:04;;;;;;;23.17;10.52;;;7.60;94.00;;;;;;2049016;28;20046;-80
2020/12/13 05:03:05;;;;;;;24.52;10.07;;;7.60;94.00;;;;;;2055562;28;20034;-80
2020/12/13 05:04:05;;;;;;;24.65;10.82;;;7.60;94.00;;;;;;2056820;28;20114;-80
2020/12/13 05:05:08;;;;;;;28.80;10.82;;;7.60;94.00;;;;;;2054845;28;20461;-80
2020/12/13 05:06:09;;;;;;;23.92;10.63;;;7.60;94.00;;;;;;2056240;28;20043;-80
2020/12/13 05:07:10;;;;;;;22.52;9.98;;;7.60;94.00;;;;;;2054478;28;20031;-80
2020/12/13 05:08:10;;;;;;;24.38;10.25;;;7.60;94.00;;;;;;2049779;28;20531;-80
2020/12/13 05:09:13;;;;;;;26.70;11.52;;;7.60;94.00;;;;;;2046177;29;20043;-80
2020/12/13 05:10:13;;;;;;;24.13;10.90;;;7.60;94.00;;;;;;2053560;28;20052;-81
2020/12/13 05:11:14;;;;;;;22.27;10.60;;;7.60;94.00;;;;;;2053401;28;20494;-80
2020/12/13 05:12:15;;;;;;;25.38;11.30;;;7.60;94.00;;;;;;2049875;28;20482;-81
2020/12/13 05:13:16;;;;;;;24.42;10.85;;;7.60;94.00;;;;;;2054803;28;20046;-80
2020/12/13 05:14:16;;;;;;;23.65;9.90;;;7.60;94.00;;;;;;2053869;28;20097;-81
2020/12/13 05:15:17;;;;;;;22.77;10.30;;;7.60;94.00;;;;;;2051238;28;20097;-80
2020/12/13 05:16:17;;;;;;;27.67;11.43;;;7.60;94.00;;;;;;2045017;28;20518;-80